createdAt,value
2022-09-15T14:07:26.241Z,119.00
2022-09-15T14:07:36.188Z,119.00
2022-09-15T14:07:47.745Z,121.00
2022-09-15T14:07:57.869Z,123.00
2022-09-15T14:08:06.188Z,123.00
2022-09-15T14:08:16.191Z,123.00
2022-09-15T14:08:26.191Z,123.00
2022-09-15T14:08:36.190Z,84.00
2022-09-15T14:08:46.249Z,15.00
2022-09-15T14:08:56.192Z,15.00
2022-09-15T14:09:06.210Z,15.00
2022-09-15T14:09:16.193Z,15.00
2022-09-15T14:09:26.195Z,15.00
2022-09-15T14:09:44.187Z,15.00
2022-09-15T14:09:46.194Z,15.00
2022-09-15T14:09:56.191Z,15.00
2022-09-15T14:10:06.209Z,15.00
2022-09-15T14:10:16.190Z,6.00
2022-09-15T14:10:26.187Z,119.00
2022-09-15T14:10:36.189Z,119.00
2022-09-15T14:10:46.190Z,120.00
2022-09-15T14:10:56.193Z,121.00
2022-09-15T14:11:06.184Z,120.00
2022-09-15T14:11:16.216Z,115.00
2022-09-15T14:11:26.184Z,115.00
2022-09-15T14:11:36.180Z,117.00
2022-09-15T14:11:46.190Z,116.00
2022-09-15T14:11:56.188Z,114.00
2022-09-15T14:12:06.217Z,112.00
2022-09-15T14:12:16.176Z,100.00
2022-09-15T14:12:26.182Z,50.00
2022-09-15T14:12:36.267Z,13.00
2022-09-15T14:12:46.175Z,28.00
2022-09-15T14:15:16.515Z,347.00
2022-09-15T14:15:26.507Z,305.00
2022-09-15T14:15:36.504Z,64.00
2022-09-15T14:15:46.532Z,412.00
2022-09-15T14:15:56.504Z,457.00
2022-09-15T14:16:10.486Z,193.00
2022-09-15T14:16:17.530Z,1271.00
2022-09-15T14:16:26.536Z,375.00
2022-09-15T14:16:36.576Z,993.00
2022-09-15T14:16:46.544Z,3323.00
2022-09-15T14:16:56.595Z,2747.00
2022-09-15T14:17:06.569Z,1266.00
2022-09-15T14:17:16.509Z,902.00
2022-09-15T14:17:26.511Z,795.00
2022-09-15T14:17:36.514Z,724.00
2022-09-15T14:17:46.512Z,663.00
2022-09-15T14:17:56.512Z,602.00
2022-09-15T14:18:06.516Z,538.00
2022-09-15T14:18:16.516Z,489.00
2022-09-15T14:18:26.515Z,437.00
2022-09-15T14:18:36.519Z,393.00
2022-09-15T14:18:46.525Z,356.00
2022-09-15T14:18:56.519Z,330.00
2022-09-15T14:19:06.520Z,311.00
2022-09-15T14:19:16.525Z,297.00
2022-09-15T14:19:26.520Z,288.00
2022-09-15T14:19:36.526Z,283.00
2022-09-15T14:19:46.524Z,281.00
2022-09-15T14:19:56.523Z,283.00
2022-09-15T14:20:06.525Z,283.00
2022-09-15T14:20:16.529Z,286.00
2022-09-15T14:20:26.528Z,287.00
2022-09-15T14:20:36.530Z,286.00
2022-09-15T14:20:46.531Z,281.00
2022-09-15T14:20:56.534Z,278.00
2022-09-15T14:21:06.536Z,271.00
2022-09-15T14:21:16.535Z,265.00
2022-09-15T14:21:26.533Z,260.00
2022-09-15T14:21:36.535Z,251.00
2022-09-15T14:21:46.547Z,244.00
2022-09-15T14:21:58.684Z,236.00
2022-09-15T14:22:06.541Z,229.00
2022-09-15T14:22:16.540Z,223.00
2022-09-15T14:22:26.541Z,216.00
2022-09-15T14:22:36.542Z,211.00
2022-09-15T14:22:46.541Z,205.00
2022-09-15T14:22:56.540Z,199.00
2022-09-15T14:23:06.542Z,194.00
2022-09-15T14:23:16.549Z,189.00
2022-09-15T14:23:26.541Z,185.00
2022-09-15T14:23:36.541Z,181.00
2022-09-15T14:23:46.544Z,176.00
2022-09-15T14:23:56.545Z,174.00
2022-09-15T14:24:06.545Z,169.00
2022-09-15T14:24:16.551Z,168.00
2022-09-15T14:24:26.551Z,166.00
2022-09-15T14:24:36.550Z,163.00
2022-09-15T14:24:46.553Z,162.00
2022-09-15T14:24:56.557Z,159.00
2022-09-15T14:25:06.573Z,158.00
2022-09-15T14:25:16.569Z,158.00
2022-09-15T14:25:26.558Z,156.00
2022-09-15T14:25:36.556Z,154.00
2022-09-15T14:25:46.564Z,152.00
2022-09-15T14:25:56.558Z,150.00
2022-09-15T14:26:06.560Z,149.00
2022-09-15T14:26:16.561Z,148.00
2022-09-15T14:26:26.566Z,145.00
2022-09-15T14:26:36.562Z,141.00
2022-09-15T14:26:46.563Z,139.00
2022-09-15T14:26:56.565Z,134.00
2022-09-15T14:27:06.567Z,131.00
2022-09-15T14:27:16.568Z,126.00
2022-09-15T14:27:26.568Z,121.00
2022-09-15T14:27:36.579Z,116.00
2022-09-15T14:27:46.603Z,111.00
2022-09-15T14:27:56.569Z,105.00
2022-09-15T14:28:06.571Z,100.00
2022-09-15T14:28:16.573Z,96.00
2022-09-15T14:28:31.335Z,91.00
2022-09-15T14:28:37.574Z,89.00
2022-09-15T14:28:46.577Z,84.00
2022-09-15T14:28:56.576Z,80.00
2022-09-15T14:29:06.579Z,78.00
2022-09-15T14:29:16.596Z,73.00
2022-09-15T14:29:26.581Z,70.00
2022-09-15T14:29:36.581Z,68.00
2022-09-15T14:29:46.589Z,65.00
2022-09-15T14:29:56.582Z,65.00
2022-09-15T14:30:06.634Z,63.00
2022-09-15T14:30:16.586Z,62.00
2022-09-15T14:30:26.598Z,61.00
2022-09-15T14:30:36.587Z,62.00
2022-09-15T14:30:46.591Z,62.00
2022-09-15T14:30:56.587Z,62.00
2022-09-15T14:31:06.592Z,62.00
2022-09-15T14:31:16.619Z,64.00
2022-09-15T14:31:26.638Z,64.00
2022-09-15T14:31:36.625Z,66.00
2022-09-15T14:31:46.699Z,67.00
2022-09-15T14:31:56.656Z,69.00
2022-09-15T14:32:06.645Z,70.00
2022-09-15T14:32:16.596Z,70.00
2022-09-15T14:32:26.597Z,73.00
2022-09-15T14:32:36.598Z,74.00
2022-09-15T14:32:46.601Z,75.00
2022-09-15T14:32:56.599Z,75.00
2022-09-15T14:33:06.600Z,75.00
2022-09-15T14:33:16.602Z,76.00
2022-09-15T14:33:26.602Z,76.00
2022-09-15T14:33:38.064Z,74.00
2022-09-15T14:33:46.608Z,74.00
2022-09-15T14:33:56.603Z,74.00
2022-09-15T14:34:06.604Z,73.00
2022-09-15T14:34:16.624Z,72.00
2022-09-15T14:34:26.626Z,72.00
2022-09-15T14:34:36.633Z,70.00
2022-09-15T14:34:56.607Z,68.00
2022-09-15T14:35:06.609Z,69.00
2022-09-15T14:35:18.983Z,67.00
2022-09-15T14:35:26.611Z,66.00
2022-09-15T14:35:36.613Z,65.00
2022-09-15T14:35:46.615Z,64.00
2022-09-15T14:35:56.615Z,64.00
2022-09-15T14:36:06.627Z,61.00
2022-09-15T14:36:16.615Z,60.00
2022-09-15T14:36:26.616Z,60.00
2022-09-15T14:36:36.623Z,58.00
2022-09-15T14:36:46.617Z,57.00
2022-09-15T14:36:56.617Z,56.00
2022-09-15T14:37:06.617Z,56.00
2022-09-15T14:37:16.638Z,56.00
2022-09-15T14:37:26.622Z,54.00
2022-09-15T14:37:36.624Z,56.00
2022-09-15T14:37:46.621Z,57.00
2022-09-15T14:37:56.624Z,56.00
2022-09-15T14:38:06.630Z,58.00
2022-09-15T14:38:16.623Z,62.00
2022-09-15T14:38:26.627Z,61.00
2022-09-15T14:38:36.627Z,61.00
2022-09-15T14:38:46.627Z,62.00
2022-09-15T14:38:56.629Z,63.00
2022-09-15T14:39:06.630Z,65.00
2022-09-15T14:39:16.642Z,67.00
2022-09-15T14:39:26.631Z,68.00
2022-09-15T14:39:36.630Z,71.00
2022-09-15T14:39:46.664Z,73.00
2022-09-15T14:39:56.857Z,73.00
2022-09-15T14:40:06.727Z,75.00
2022-09-15T14:40:16.743Z,76.00
2022-09-15T14:40:26.690Z,76.00
2022-09-15T14:40:36.707Z,80.00
2022-09-15T14:40:46.684Z,79.00
2022-09-15T14:40:56.639Z,80.00
2022-09-15T14:41:06.638Z,81.00
2022-09-15T14:41:16.643Z,82.00
2022-09-15T14:41:26.640Z,83.00
2022-09-15T14:41:36.638Z,83.00
2022-09-15T14:41:46.705Z,83.00
2022-09-15T14:41:56.719Z,84.00
2022-09-15T14:42:06.645Z,84.00
2022-09-15T14:42:18.940Z,85.00
2022-09-15T14:42:26.665Z,85.00
2022-09-15T14:42:36.648Z,85.00
2022-09-15T14:42:46.646Z,84.00
2022-09-15T14:42:56.657Z,83.00
2022-09-15T14:43:06.652Z,82.00
2022-09-15T14:43:19.423Z,82.00
2022-09-15T14:43:26.652Z,80.00
2022-09-15T14:43:36.672Z,78.00
2022-09-15T14:43:46.653Z,76.00
2022-09-15T14:43:56.653Z,74.00
2022-09-15T14:44:06.668Z,72.00
2022-09-15T14:45:52.231Z,69.00
2022-09-15T14:45:53.851Z,53.00
2022-09-15T14:45:57.894Z,50.00
2022-09-15T14:46:03.713Z,49.00
2022-09-15T14:46:09.081Z,51.00
2022-09-15T14:46:16.664Z,51.00
2022-09-15T14:46:26.667Z,53.00
2022-09-15T14:46:36.670Z,53.00
2022-09-15T14:46:46.670Z,51.00
2022-09-15T14:46:56.666Z,50.00
2022-09-15T14:47:06.669Z,52.00
2022-09-15T14:47:16.668Z,51.00
2022-09-15T14:47:26.671Z,50.00
2022-09-15T14:47:36.670Z,51.00
2022-09-15T14:47:46.686Z,52.00
2022-09-15T14:47:56.673Z,53.00
2022-09-15T14:48:06.675Z,51.00
2022-09-15T14:48:16.676Z,55.00
2022-09-15T14:48:26.676Z,56.00
2022-09-15T14:48:36.677Z,62.00
2022-09-15T14:48:46.679Z,62.00
2022-09-15T14:48:56.677Z,68.00
2022-09-15T14:49:06.678Z,70.00
2022-09-15T14:49:16.693Z,74.00
2022-09-15T14:49:26.679Z,78.00
2022-09-15T14:49:36.681Z,83.00
2022-09-15T14:49:46.683Z,85.00
2022-09-15T14:49:56.780Z,91.00
2022-09-15T14:50:06.688Z,95.00
2022-09-15T14:50:16.685Z,99.00
2022-09-15T14:50:30.357Z,102.00
2022-09-15T14:50:37.688Z,107.00
2022-09-15T14:50:46.691Z,106.00
2022-09-15T14:50:56.689Z,109.00
2022-09-15T14:51:06.693Z,109.00
2022-09-15T14:51:16.691Z,111.00
2022-09-15T14:51:26.691Z,115.00
2022-09-15T14:51:36.693Z,114.00
2022-09-15T14:51:46.710Z,115.00
2022-09-15T14:51:56.695Z,117.00
2022-09-15T14:52:06.695Z,117.00
2022-09-15T14:52:16.695Z,119.00
2022-09-15T14:52:26.699Z,119.00
2022-09-15T14:52:36.703Z,121.00
2022-09-15T14:52:46.697Z,123.00
2022-09-15T14:52:56.701Z,125.00
2022-09-15T14:53:06.699Z,125.00
2022-09-15T14:53:16.702Z,129.00
2022-09-15T14:53:26.706Z,130.00
2022-09-15T14:53:36.702Z,133.00
2022-09-15T14:53:46.705Z,134.00
2022-09-15T14:53:56.713Z,136.00
2022-09-15T14:54:06.706Z,138.00
2022-09-15T14:54:16.726Z,141.00
2022-09-15T14:54:26.710Z,141.00
2022-09-15T14:54:36.709Z,144.00
2022-09-15T14:54:46.709Z,144.00
2022-09-15T14:54:56.711Z,147.00
2022-09-15T14:55:06.712Z,150.00
2022-09-15T14:55:16.710Z,149.00
2022-09-15T14:55:26.709Z,149.00
2022-09-15T14:55:36.711Z,150.00
2022-09-15T14:55:46.712Z,150.00
2022-09-15T14:55:56.713Z,151.00
2022-09-15T14:56:08.583Z,152.00
2022-09-15T14:56:16.708Z,153.00
2022-09-15T14:56:26.715Z,154.00
2022-09-15T14:56:36.716Z,155.00
2022-09-15T14:56:46.718Z,157.00
2022-09-15T14:56:56.722Z,162.00
2022-09-15T14:57:06.720Z,167.00
2022-09-15T14:57:16.722Z,171.00
2022-09-15T14:57:30.838Z,173.00
2022-09-15T14:57:36.828Z,178.00
2022-09-15T14:57:46.727Z,180.00
2022-09-15T14:57:56.724Z,185.00
2022-09-15T14:58:06.727Z,188.00
2022-09-15T14:58:16.726Z,192.00
2022-09-15T14:58:26.726Z,195.00
2022-09-15T14:58:36.728Z,199.00
2022-09-15T14:58:46.727Z,203.00
2022-09-15T14:58:56.726Z,205.00
2022-09-15T14:59:06.729Z,207.00
2022-09-15T14:59:16.776Z,212.00
2022-09-15T14:59:26.729Z,217.00
2022-09-15T14:59:36.728Z,219.00
2022-09-15T14:59:46.729Z,223.00
2022-09-15T14:59:56.788Z,227.00
2022-09-15T15:00:06.731Z,230.00
2022-09-15T15:00:16.738Z,233.00
2022-09-15T15:00:26.767Z,234.00
2022-09-15T15:00:36.772Z,237.00
2022-09-15T15:00:46.781Z,237.00
2022-09-15T15:00:56.759Z,235.00
2022-09-15T15:01:06.776Z,236.00
2022-09-15T15:01:16.901Z,231.00
2022-09-15T15:01:26.820Z,230.00
2022-09-15T15:01:36.739Z,226.00
2022-09-15T15:01:46.768Z,225.00
2022-09-15T15:01:56.774Z,223.00
2022-09-15T15:02:06.870Z,221.00
2022-09-15T15:02:16.822Z,220.00
2022-09-15T15:02:26.816Z,220.00
2022-09-15T15:02:36.800Z,222.00
2022-09-15T15:02:46.753Z,221.00
2022-09-15T15:02:56.749Z,224.00
2022-09-15T15:03:06.752Z,224.00
2022-09-15T15:03:18.306Z,224.00
2022-09-15T15:03:26.764Z,226.00
2022-09-15T15:03:36.749Z,225.00
2022-09-15T15:03:46.756Z,228.00
2022-09-15T15:03:56.754Z,228.00
2022-09-15T15:04:06.752Z,226.00
2022-09-15T15:04:16.760Z,228.00
2022-09-15T15:04:26.760Z,227.00
2022-09-15T15:04:36.757Z,229.00
2022-09-15T15:04:46.759Z,229.00
2022-09-15T15:04:56.760Z,231.00
2022-09-15T15:05:06.760Z,234.00
2022-09-15T15:05:16.761Z,238.00
2022-09-15T15:05:26.762Z,239.00
2022-09-15T15:05:36.819Z,245.00
2022-09-15T15:05:46.764Z,249.00
2022-09-15T15:06:02.850Z,253.00
2022-09-15T15:06:28.534Z,256.00
2022-09-15T15:06:29.663Z,266.00
2022-09-15T15:06:33.057Z,260.00
2022-09-15T15:06:36.764Z,270.00
2022-09-15T15:06:46.765Z,276.00
2022-09-15T15:06:56.770Z,280.00
2022-09-15T15:07:06.769Z,285.00
2022-09-15T15:07:16.769Z,288.00
2022-09-15T15:07:26.768Z,290.00
2022-09-15T15:07:36.773Z,291.00
2022-09-15T15:07:46.770Z,290.00
2022-09-15T15:07:56.771Z,290.00
2022-09-15T15:08:06.771Z,288.00
2022-09-15T15:08:16.773Z,285.00
2022-09-15T15:08:26.773Z,282.00
2022-09-15T15:08:36.772Z,279.00
2022-09-15T15:08:46.774Z,276.00
2022-09-15T15:08:56.775Z,274.00
2022-09-15T15:09:06.775Z,270.00
2022-09-15T15:09:16.778Z,269.00
2022-09-15T15:09:26.779Z,265.00
2022-09-15T15:09:36.779Z,263.00
2022-09-15T15:09:46.778Z,262.00
2022-09-15T15:09:56.813Z,260.00
2022-09-15T15:10:06.785Z,260.00
2022-09-15T15:10:16.786Z,259.00
2022-09-15T15:10:26.797Z,259.00
2022-09-15T15:10:36.787Z,258.00
2022-09-15T15:10:46.787Z,256.00
2022-09-15T15:10:56.792Z,256.00
2022-09-15T15:11:06.790Z,255.00
2022-09-15T15:11:16.790Z,256.00
2022-09-15T15:11:26.789Z,256.00
2022-09-15T15:11:36.791Z,258.00
2022-09-15T15:11:46.793Z,263.00
2022-09-15T15:11:56.791Z,266.00
2022-09-15T15:12:06.797Z,271.00
2022-09-15T15:12:16.794Z,271.00
2022-09-15T15:12:26.804Z,277.00
2022-09-15T15:12:36.793Z,282.00
2022-09-15T15:12:46.796Z,286.00
2022-09-15T15:12:56.796Z,290.00
2022-09-15T15:13:06.797Z,292.00
2022-09-15T15:13:16.800Z,293.00
2022-09-15T15:13:26.799Z,296.00
2022-09-15T15:13:36.800Z,297.00
2022-09-15T15:13:46.809Z,295.00
2022-09-15T15:13:56.808Z,296.00
2022-09-15T15:14:06.801Z,295.00
2022-09-15T15:14:16.848Z,291.00
2022-09-15T15:14:26.811Z,292.00
2022-09-15T15:14:36.816Z,291.00
2022-09-15T15:14:46.806Z,293.00
2022-09-15T15:14:56.874Z,293.00
2022-09-15T15:15:06.805Z,294.00
2022-09-15T15:15:16.807Z,295.00
2022-09-15T15:15:26.810Z,298.00
2022-09-15T15:15:36.813Z,301.00
2022-09-15T15:15:46.809Z,305.00
2022-09-15T15:15:56.829Z,309.00
2022-09-15T15:16:06.888Z,314.00
2022-09-15T15:16:16.841Z,319.00
2022-09-15T15:16:26.885Z,326.00
2022-09-15T15:16:36.850Z,334.00
2022-09-15T15:16:46.855Z,336.00
2022-09-15T15:16:56.908Z,348.00
2022-09-15T15:17:06.948Z,353.00
2022-09-15T15:17:16.815Z,359.00
2022-09-15T15:17:26.816Z,367.00
2022-09-15T15:17:36.860Z,376.00
2022-09-15T15:17:46.818Z,391.00
2022-09-15T15:17:56.832Z,403.00
2022-09-15T15:18:06.818Z,413.00
2022-09-15T15:18:16.819Z,424.00
2022-09-15T15:18:31.005Z,432.00
2022-09-15T15:18:37.821Z,449.00
2022-09-15T15:18:46.820Z,470.00
2022-09-15T15:18:56.824Z,480.00
2022-09-15T15:19:06.824Z,499.00
2022-09-15T15:19:16.827Z,511.00
2022-09-15T15:19:26.835Z,521.00
2022-09-15T15:19:36.827Z,527.00
2022-09-15T15:19:46.828Z,532.00
2022-09-15T15:19:56.862Z,528.00
2022-09-15T15:20:06.829Z,529.00
2022-09-15T15:20:16.829Z,528.00
2022-09-15T15:20:26.834Z,525.00
2022-09-15T15:20:36.833Z,521.00
2022-09-15T15:20:46.837Z,514.00
2022-09-15T15:20:56.834Z,509.00
2022-09-15T15:21:06.837Z,506.00
2022-09-15T15:21:16.838Z,499.00
2022-09-15T15:21:26.839Z,480.00
2022-09-15T15:21:36.840Z,469.00
2022-09-15T15:21:46.839Z,461.00
2022-09-15T15:21:56.842Z,459.00
2022-09-15T15:22:06.843Z,461.00
2022-09-15T15:22:16.844Z,455.00
2022-09-15T15:22:26.846Z,451.00
2022-09-15T15:22:36.846Z,453.00
2022-09-15T15:22:46.848Z,448.00
2022-09-15T15:22:56.847Z,449.00
2022-09-15T15:23:06.861Z,426.00
2022-09-15T15:23:16.856Z,494.00
2022-09-15T15:23:26.854Z,422.00
2022-09-15T15:23:36.852Z,412.00
2022-09-15T15:23:47.232Z,405.00
2022-09-15T15:23:57.219Z,399.00
2022-09-15T15:24:06.854Z,396.00
2022-09-15T15:24:16.855Z,391.00
2022-09-15T15:24:26.866Z,388.00
2022-09-15T15:24:36.857Z,383.00
2022-09-15T15:24:46.857Z,377.00
2022-09-15T15:24:56.859Z,371.00
2022-09-15T15:25:06.861Z,361.00
2022-09-15T15:25:16.861Z,354.00
2022-09-15T15:25:26.862Z,344.00
2022-09-15T15:25:36.862Z,335.00
2022-09-15T15:25:46.865Z,324.00
2022-09-15T15:25:56.867Z,314.00
2022-09-15T15:26:06.868Z,302.00
2022-09-15T15:26:16.868Z,295.00
2022-09-15T15:26:26.868Z,289.00
2022-09-15T15:26:36.866Z,282.00
2022-09-15T15:26:46.867Z,274.00
2022-09-15T15:26:56.870Z,268.00
2022-09-15T15:27:06.870Z,262.00
2022-09-15T15:27:16.871Z,256.00
2022-09-15T15:27:26.872Z,251.00
2022-09-15T15:27:36.874Z,246.00
2022-09-15T15:27:46.876Z,238.00
2022-09-15T15:27:56.878Z,235.00
2022-09-15T15:28:06.878Z,229.00
2022-09-15T15:28:16.880Z,223.00
2022-09-15T15:28:26.880Z,219.00
2022-09-15T15:28:36.882Z,212.00
2022-09-15T15:28:46.884Z,204.00
2022-09-15T15:28:56.882Z,200.00
2022-09-15T15:29:06.887Z,193.00
2022-09-15T15:29:16.893Z,187.00
2022-09-15T15:29:26.890Z,181.00
2022-09-15T15:29:36.886Z,174.00
2022-09-15T15:29:46.889Z,170.00
2022-09-15T15:29:56.890Z,164.00
2022-09-15T15:30:06.895Z,159.00
2022-09-15T15:30:16.891Z,155.00
2022-09-15T15:30:26.892Z,151.00
2022-09-15T15:30:36.891Z,149.00
2022-09-15T15:30:46.893Z,144.00
2022-09-15T15:30:56.893Z,140.00
2022-09-15T15:31:06.893Z,137.00
2022-09-15T15:31:16.924Z,133.00
2022-09-15T15:31:26.971Z,131.00
2022-09-15T15:31:36.943Z,126.00
2022-09-15T15:31:46.956Z,124.00
2022-09-15T15:31:56.967Z,121.00
2022-09-15T15:32:06.965Z,119.00
2022-09-15T15:32:16.904Z,116.00
2022-09-15T15:32:26.901Z,115.00
2022-09-15T15:32:36.970Z,113.00
2022-09-15T15:32:46.904Z,112.00
2022-09-15T15:32:56.904Z,111.00
2022-09-15T15:33:06.904Z,109.00
2022-09-15T15:33:19.546Z,108.00
2022-09-15T15:33:26.905Z,106.00
2022-09-15T15:33:36.905Z,108.00
2022-09-15T15:33:46.909Z,107.00
2022-09-15T15:33:56.919Z,106.00
2022-09-15T15:34:06.914Z,105.00
2022-09-15T15:34:16.913Z,105.00
2022-09-15T15:34:26.915Z,104.00
2022-09-15T15:34:36.918Z,105.00
2022-09-15T15:34:46.914Z,104.00
2022-09-15T15:34:56.920Z,102.00
2022-09-15T15:35:06.916Z,102.00
2022-09-15T15:35:16.916Z,101.00
2022-09-15T15:35:26.919Z,102.00
2022-09-15T15:35:36.922Z,102.00
2022-09-15T15:35:46.923Z,102.00
2022-09-15T15:35:56.917Z,102.00
2022-09-15T15:36:06.917Z,102.00
2022-09-15T15:36:16.920Z,102.00
2022-09-15T15:36:26.921Z,100.00
2022-09-15T15:36:36.920Z,100.00
2022-09-15T15:36:46.921Z,99.00
2022-09-15T15:36:56.921Z,98.00
2022-09-15T15:37:06.924Z,96.00
2022-09-15T15:37:16.925Z,95.00
2022-09-15T15:37:26.926Z,93.00
2022-09-15T15:37:36.931Z,92.00
2022-09-15T15:37:46.930Z,91.00
2022-09-15T15:37:56.929Z,89.00
2022-09-15T15:38:06.931Z,89.00
2022-09-15T15:38:16.941Z,89.00
2022-09-15T15:38:26.930Z,87.00
2022-09-15T15:38:36.930Z,89.00
2022-09-15T15:38:47.637Z,85.00
2022-09-15T15:38:57.118Z,85.00
2022-09-15T15:39:06.936Z,85.00
2022-09-15T15:39:16.935Z,83.00
2022-09-15T15:39:26.941Z,83.00
2022-09-15T15:39:36.936Z,81.00
2022-09-15T15:39:46.989Z,80.00
2022-09-15T15:39:57.190Z,80.00
2022-09-15T15:40:06.982Z,79.00
2022-09-15T15:40:17.014Z,77.00
2022-09-15T15:40:27.001Z,74.00
2022-09-15T15:40:37.012Z,74.00
2022-09-15T15:40:46.942Z,70.00
2022-09-15T15:40:56.940Z,69.00
2022-09-15T15:41:06.942Z,68.00
2022-09-15T15:41:16.944Z,66.00
2022-09-15T15:41:26.949Z,65.00
2022-09-15T15:41:36.972Z,64.00
2022-09-15T15:41:56.948Z,63.00
2022-09-15T15:42:06.949Z,61.00
2022-09-15T15:42:16.955Z,61.00
2022-09-15T15:42:26.949Z,60.00
2022-09-15T15:42:36.957Z,59.00
2022-09-15T15:42:46.948Z,58.00
2022-09-15T15:42:59.467Z,58.00
2022-09-15T15:43:06.953Z,56.00
2022-09-15T15:43:16.952Z,56.00
2022-09-15T15:43:26.957Z,55.00
2022-09-15T15:43:36.953Z,54.00
2022-09-15T15:43:46.958Z,53.00
2022-09-15T15:43:56.954Z,51.00
2022-09-15T15:44:06.955Z,52.00
2022-09-15T15:44:16.956Z,52.00
2022-09-15T15:44:26.963Z,50.00
2022-09-15T15:44:36.964Z,49.00
2022-09-15T15:44:46.960Z,49.00
2022-09-15T15:44:56.969Z,48.00
2022-09-15T15:45:06.964Z,47.00
2022-09-15T15:45:16.970Z,48.00
2022-09-15T15:45:27.033Z,47.00
2022-09-15T15:45:36.990Z,47.00
2022-09-15T15:45:47.017Z,46.00
2022-09-15T15:45:57.056Z,46.00
2022-09-15T15:46:07.008Z,46.00
2022-09-15T15:46:17.020Z,46.00
2022-09-15T15:46:26.972Z,46.00
2022-09-15T15:46:36.972Z,46.00
2022-09-15T15:46:46.975Z,45.00
2022-09-15T15:46:56.973Z,45.00
2022-09-15T15:47:06.982Z,43.00
2022-09-15T15:47:16.975Z,44.00
2022-09-15T15:47:26.981Z,45.00
2022-09-15T15:47:36.980Z,45.00
2022-09-15T15:47:46.981Z,45.00
2022-09-15T15:47:56.982Z,45.00
2022-09-15T15:48:06.985Z,43.00
2022-09-15T15:48:16.985Z,43.00
2022-09-15T15:48:26.985Z,43.00
2022-09-15T15:48:38.201Z,43.00
2022-09-15T15:48:46.986Z,43.00
2022-09-15T15:48:56.990Z,44.00
2022-09-15T15:49:06.989Z,45.00
2022-09-15T15:49:16.988Z,45.00
2022-09-15T15:49:27.002Z,44.00
2022-09-15T15:49:46.195Z,44.00
2022-09-15T15:50:11.781Z,44.00
2022-09-15T15:50:12.318Z,42.00
2022-09-15T15:50:15.395Z,42.00
2022-09-15T15:50:17.995Z,43.00
2022-09-15T15:50:26.999Z,44.00
2022-09-15T15:50:36.998Z,42.00
2022-09-15T15:50:47.000Z,42.00
2022-09-15T15:50:57.002Z,42.00
2022-09-15T15:51:07.000Z,44.00
2022-09-15T15:51:17.000Z,44.00
2022-09-15T15:51:27.002Z,44.00
2022-09-15T15:51:37.005Z,45.00
2022-09-15T15:51:47.004Z,45.00
2022-09-15T15:51:57.005Z,45.00
2022-09-15T15:52:07.005Z,45.00
2022-09-15T15:52:17.004Z,45.00
2022-09-15T15:52:27.005Z,45.00
2022-09-15T15:52:37.006Z,45.00
2022-09-15T15:52:47.005Z,45.00
2022-09-15T15:52:56.989Z,45.00
2022-09-15T15:53:07.011Z,45.00
2022-09-15T15:53:17.007Z,45.00
2022-09-15T15:53:27.007Z,45.00
2022-09-15T15:53:37.013Z,45.00
2022-09-15T15:53:47.015Z,45.00
2022-09-15T15:53:57.012Z,45.00
2022-09-15T15:54:07.020Z,45.00
2022-09-15T15:54:17.019Z,43.00
2022-09-15T15:54:27.021Z,44.00
2022-09-15T15:54:37.020Z,43.00
2022-09-15T15:54:47.019Z,43.00
2022-09-15T15:54:57.019Z,44.00
2022-09-15T15:55:07.020Z,42.00
2022-09-15T15:55:17.019Z,40.00
2022-09-15T15:55:27.042Z,41.00
2022-09-15T15:55:37.036Z,40.00
2022-09-15T15:55:47.026Z,39.00
2022-09-15T15:55:57.022Z,39.00
2022-09-15T15:56:07.026Z,39.00
2022-09-15T15:56:17.027Z,37.00
2022-09-15T15:56:27.025Z,38.00
2022-09-15T15:56:37.976Z,37.00
2022-09-15T15:56:47.028Z,37.00
2022-09-15T15:56:57.030Z,37.00
2022-09-15T15:57:07.027Z,37.00
2022-09-15T15:57:17.029Z,37.00
2022-09-15T15:57:27.032Z,37.00
2022-09-15T15:57:37.034Z,36.00
2022-09-15T15:57:47.029Z,36.00
2022-09-15T15:57:57.032Z,34.00
2022-09-15T15:58:07.032Z,35.00
2022-09-15T15:58:17.030Z,35.00
2022-09-15T15:58:27.032Z,35.00
2022-09-15T15:58:37.032Z,34.00
2022-09-15T15:58:47.033Z,33.00
2022-09-15T15:58:57.033Z,34.00
2022-09-15T15:59:07.034Z,33.00
2022-09-15T15:59:17.034Z,33.00
2022-09-15T15:59:27.038Z,33.00
2022-09-15T15:59:37.034Z,33.00
2022-09-15T15:59:47.036Z,33.00
2022-09-15T15:59:57.040Z,33.00
2022-09-15T16:00:07.037Z,32.00
2022-09-15T16:00:21.050Z,32.00
2022-09-15T16:00:27.043Z,32.00
2022-09-15T16:00:37.128Z,32.00
2022-09-15T16:00:47.083Z,31.00
2022-09-15T16:00:57.188Z,32.00
2022-09-15T16:01:07.124Z,32.00
2022-09-15T16:01:17.112Z,32.00
2022-09-15T16:01:27.045Z,32.00
2022-09-15T16:01:37.057Z,31.00
2022-09-15T16:01:47.077Z,30.00
2022-09-15T16:01:57.074Z,30.00
2022-09-15T16:02:07.153Z,30.00
2022-09-15T16:02:17.089Z,29.00
2022-09-15T16:02:27.135Z,28.00
2022-09-15T16:02:37.049Z,28.00
2022-09-15T16:02:47.050Z,28.00
2022-09-15T16:02:57.049Z,28.00
2022-09-15T16:03:07.051Z,28.00
2022-09-15T16:03:17.052Z,28.00
2022-09-15T16:03:27.054Z,28.00
2022-09-15T16:03:37.059Z,27.00
2022-09-15T16:03:47.057Z,28.00
2022-09-15T16:03:57.055Z,27.00
2022-09-15T16:04:07.057Z,26.00
2022-09-15T16:04:17.058Z,26.00
2022-09-15T16:04:27.071Z,24.00
2022-09-15T16:04:37.058Z,24.00
2022-09-15T16:04:47.061Z,23.00
2022-09-15T16:04:57.060Z,22.00
2022-09-15T16:05:07.063Z,21.00
2022-09-15T16:05:17.065Z,20.00
2022-09-15T16:05:27.067Z,20.00
2022-09-15T16:05:37.065Z,20.00
2022-09-15T16:05:47.067Z,20.00
2022-09-15T16:05:57.074Z,20.00
2022-09-15T16:06:07.066Z,20.00
2022-09-15T16:06:17.071Z,20.00
2022-09-15T16:06:27.071Z,22.00
2022-09-15T16:06:37.069Z,21.00
2022-09-15T16:06:47.071Z,21.00
2022-09-15T16:06:57.069Z,22.00
2022-09-15T16:07:07.072Z,22.00
2022-09-15T16:07:17.080Z,22.00
2022-09-15T16:07:31.103Z,23.00
2022-09-15T16:07:38.074Z,22.00
2022-09-15T16:07:47.073Z,22.00
2022-09-15T16:07:57.074Z,23.00
2022-09-15T16:08:07.073Z,23.00
2022-09-15T16:08:17.078Z,25.00
2022-09-15T16:08:27.078Z,23.00
2022-09-15T16:08:37.076Z,25.00
2022-09-15T16:08:47.076Z,26.00
2022-09-15T16:08:57.079Z,27.00
2022-09-15T16:09:07.079Z,26.00
2022-09-15T16:09:17.081Z,26.00
2022-09-15T16:09:27.095Z,28.00
2022-09-15T16:09:37.081Z,28.00
2022-09-15T16:09:47.096Z,27.00
2022-09-15T16:09:57.082Z,27.00
2022-09-15T16:10:07.103Z,28.00
2022-09-15T16:10:17.088Z,29.00
2022-09-15T16:10:27.084Z,31.00
2022-09-15T16:10:37.084Z,31.00
2022-09-15T16:10:47.086Z,32.00
2022-09-15T16:10:57.087Z,34.00
2022-09-15T16:11:07.089Z,34.00
2022-09-15T16:11:17.093Z,34.00
2022-09-15T16:11:27.088Z,36.00
2022-09-15T16:11:37.089Z,37.00
2022-09-15T16:11:47.213Z,38.00
2022-09-15T16:12:07.095Z,39.00
2022-09-15T16:12:17.093Z,42.00
2022-09-15T16:12:29.704Z,40.00
2022-09-15T16:12:37.095Z,44.00
2022-09-15T16:12:47.095Z,42.00
2022-09-15T16:12:57.099Z,45.00
2022-09-15T16:13:07.097Z,45.00
2022-09-15T16:13:17.098Z,46.00
2022-09-15T16:13:27.099Z,47.00
2022-09-15T16:13:37.102Z,48.00
2022-09-15T16:13:47.104Z,48.00
2022-09-15T16:13:57.102Z,50.00
2022-09-15T16:14:07.103Z,50.00
2022-09-15T16:14:17.107Z,51.00
2022-09-15T16:14:27.129Z,53.00
2022-09-15T16:14:37.105Z,52.00
2022-09-15T16:14:47.109Z,52.00
2022-09-15T16:14:57.108Z,52.00
2022-09-15T16:15:07.112Z,52.00
2022-09-15T16:15:17.111Z,53.00
2022-09-15T16:15:27.113Z,51.00
2022-09-15T16:15:37.112Z,51.00
2022-09-15T16:15:47.115Z,53.00
2022-09-15T16:15:57.130Z,53.00
2022-09-15T16:16:07.144Z,54.00
2022-09-15T16:16:17.176Z,54.00
2022-09-15T16:16:27.188Z,54.00
2022-09-15T16:16:37.178Z,54.00
2022-09-15T16:16:47.119Z,54.00
2022-09-15T16:16:57.979Z,54.00
2022-09-15T16:17:07.122Z,53.00
2022-09-15T16:17:17.121Z,53.00
2022-09-15T16:17:27.123Z,51.00
2022-09-15T16:17:37.124Z,51.00
2022-09-15T16:17:47.293Z,50.00
2022-09-15T16:17:57.154Z,52.00
2022-09-15T16:18:07.127Z,52.00